createdAt,value
2023-01-03T00:00:45.748Z,98596.66
2023-01-03T00:05:48.096Z,98601.19
2023-01-03T00:10:49.417Z,98596.38
2023-01-03T00:15:50.732Z,98596.34
2023-01-03T00:20:52.061Z,98598.53
2023-01-03T00:25:53.366Z,98598.81
2023-01-03T00:30:54.690Z,98600.72
2023-01-03T00:35:56.037Z,98606.66
2023-01-03T00:41:04.302Z,98624.91
2023-01-03T00:46:06.303Z,98626.19
2023-01-03T00:51:12.171Z,98630.13
2023-01-03T00:56:15.379Z,98631.59
2023-01-03T01:01:22.651Z,98641.97
2023-01-03T01:06:25.177Z,98652.25
2023-01-03T01:11:27.533Z,98656.47
2023-01-03T01:16:30.912Z,98660.44
2023-01-03T01:21:32.790Z,98664.66
2023-01-03T01:26:34.159Z,98675.75
2023-01-03T01:31:35.569Z,98689.50
2023-01-03T01:36:37.776Z,98688.78
2023-01-03T01:41:58.393Z,98693.81
2023-01-03T01:46:59.769Z,98702.78
2023-01-03T01:52:01.299Z,98709.41
2023-01-03T01:57:03.273Z,98712.34
2023-01-03T02:02:05.583Z,98714.59
2023-01-03T02:07:07.164Z,98716.84
2023-01-03T02:12:40.335Z,98722.44
2023-01-03T02:17:44.503Z,98730.03
2023-01-03T02:22:48.908Z,98720.38
2023-01-03T02:27:56.473Z,98718.25
2023-01-03T02:33:05.495Z,98719.22
2023-01-03T02:38:09.862Z,98722.69
2023-01-03T02:43:21.299Z,98740.28
2023-01-03T02:48:22.763Z,98730.19
2023-01-03T02:53:30.552Z,98748.38
2023-01-03T02:58:34.981Z,98733.09
2023-01-03T03:03:37.536Z,98754.78
2023-01-03T03:08:39.125Z,98755.31
2023-01-03T03:13:43.394Z,98756.97
2023-01-03T03:18:47.938Z,98751.66
2023-01-03T03:24:08.696Z,98764.00
2023-01-03T03:29:12.812Z,98757.88
2023-01-03T03:34:23.509Z,98752.69
2023-01-03T03:39:44.230Z,98751.88
2023-01-03T03:45:02.304Z,98763.19
2023-01-03T03:50:11.744Z,98774.97
2023-01-03T03:55:16.225Z,98775.69
2023-01-03T04:00:21.384Z,98776.13
2023-01-03T04:05:24.805Z,98784.50
2023-01-03T04:10:26.322Z,98781.44
2023-01-03T04:15:28.000Z,98776.09
2023-01-03T04:20:29.910Z,98790.38
2023-01-03T04:25:31.249Z,98791.78
2023-01-03T04:30:32.600Z,98793.16
2023-01-03T04:35:34.380Z,98803.50
2023-01-03T04:40:36.078Z,98818.34
2023-01-03T04:45:37.688Z,98815.53
2023-01-03T04:50:39.092Z,98826.16
2023-01-03T04:55:45.543Z,98833.19
2023-01-03T05:00:47.062Z,98831.19
2023-01-03T05:05:50.365Z,98836.22
2023-01-03T05:10:53.411Z,98838.06
2023-01-03T05:15:54.743Z,98839.06
2023-01-03T05:21:14.961Z,98852.19
2023-01-03T05:26:18.452Z,98848.84
2023-01-03T05:31:20.142Z,98846.50
2023-01-03T05:36:21.517Z,98863.41
2023-01-03T05:41:41.703Z,98861.47
2023-01-03T05:46:43.132Z,98871.53
2023-01-03T05:51:44.443Z,98873.19
2023-01-03T05:56:45.903Z,98883.56
2023-01-03T06:01:47.249Z,98885.63
2023-01-03T06:06:48.793Z,98888.00
2023-01-03T06:11:50.178Z,98893.88
2023-01-03T06:17:10.238Z,98900.75
2023-01-03T06:22:11.623Z,98897.25
2023-01-03T06:27:13.854Z,98900.59
2023-01-03T06:32:15.175Z,98901.56
2023-01-03T06:37:16.564Z,98904.22
2023-01-03T06:42:36.795Z,98911.00
2023-01-03T06:47:56.664Z,98908.75
2023-01-03T06:53:13.004Z,98918.84
2023-01-03T06:58:14.348Z,98922.50
2023-01-03T07:03:15.675Z,98926.59
2023-01-03T07:08:17.061Z,98930.66
2023-01-03T07:13:37.139Z,98939.91
2023-01-03T07:18:38.527Z,98937.38
2023-01-03T07:23:39.931Z,98938.78
2023-01-03T07:28:41.237Z,98937.53
2023-01-03T07:33:42.554Z,98942.00
2023-01-03T07:38:44.762Z,98940.34
2023-01-03T07:43:47.547Z,98950.63
2023-01-03T07:48:50.042Z,98946.84
2023-01-03T07:53:53.078Z,98963.06
2023-01-03T07:58:54.529Z,98968.66
2023-01-03T08:03:55.946Z,98980.38
2023-01-03T08:09:16.146Z,98990.19
2023-01-03T08:14:23.487Z,98997.47
2023-01-03T08:19:26.822Z,99000.25
2023-01-03T08:24:28.145Z,99013.13
2023-01-03T08:29:29.549Z,98998.16
2023-01-03T08:34:32.664Z,99004.44
2023-01-03T08:39:37.713Z,99006.13
2023-01-03T08:44:39.445Z,98997.88
2023-01-03T08:49:40.897Z,98996.63
2023-01-03T08:54:43.834Z,99006.72
2023-01-03T08:59:45.194Z,99013.19
2023-01-03T09:04:46.682Z,99021.59
2023-01-03T09:09:48.007Z,99026.66
2023-01-03T09:14:49.336Z,99019.38
2023-01-03T09:19:50.700Z,99023.88
2023-01-03T09:24:52.048Z,99023.44
2023-01-03T09:29:53.347Z,99033.69
2023-01-03T09:34:54.674Z,99041.22
2023-01-03T09:39:56.018Z,99041.53
2023-01-03T09:44:58.726Z,99050.78
2023-01-03T09:55:46.675Z,99045.47
2023-01-03T10:01:09.064Z,99049.94
2023-01-03T10:06:16.722Z,99048.56
2023-01-03T10:11:39.382Z,99046.59
2023-01-03T10:17:01.170Z,99046.03
2023-01-03T10:22:12.402Z,99041.00
2023-01-03T10:27:19.288Z,99047.44
2023-01-03T10:32:26.354Z,99047.00
2023-01-03T10:37:27.784Z,99041.41
2023-01-03T10:42:30.808Z,99042.84
2023-01-03T10:47:32.120Z,99034.28
2023-01-03T10:52:40.697Z,99035.81
2023-01-03T10:57:44.253Z,99034.00
2023-01-03T11:02:46.280Z,99028.94
2023-01-03T11:07:53.796Z,99020.94
2023-01-03T11:12:55.246Z,99014.50
2023-01-03T11:17:56.577Z,99017.97
2023-01-03T11:23:02.936Z,99015.81
2023-01-03T11:28:05.368Z,99008.56
2023-01-03T11:33:14.237Z,99005.97
2023-01-03T11:38:27.889Z,99006.81
2023-01-03T11:43:38.685Z,99007.09
2023-01-03T11:48:52.889Z,98996.44
2023-01-03T11:54:05.105Z,99001.19
2023-01-03T11:59:09.523Z,98989.13
2023-01-03T12:04:17.614Z,98993.47
2023-01-03T12:09:26.088Z,98997.09
2023-01-03T12:14:33.484Z,99001.06
2023-01-03T12:19:37.902Z,98999.00
2023-01-03T12:24:43.506Z,99008.63
2023-01-03T12:29:47.906Z,99005.91
2023-01-03T12:35:01.505Z,99001.19
2023-01-03T12:40:05.520Z,99000.38
2023-01-03T12:45:20.771Z,98999.53
2023-01-03T12:50:28.409Z,98993.81
2023-01-03T12:55:38.881Z,98987.22
2023-01-03T13:00:47.486Z,98981.09
2023-01-03T13:05:50.976Z,98992.00
2023-01-03T13:10:54.547Z,98978.84
2023-01-03T13:15:56.169Z,98979.53
2023-01-03T13:20:57.668Z,98983.00
2023-01-03T13:26:19.289Z,98969.84
2023-01-03T13:31:21.362Z,98971.91
2023-01-03T13:36:23.809Z,98977.38
2023-01-03T13:41:38.341Z,98976.03
2023-01-03T13:46:42.062Z,98967.78
2023-01-03T13:51:43.433Z,98984.47
2023-01-03T13:56:44.768Z,98975.28
2023-01-03T14:01:46.288Z,98984.00
2023-01-03T14:07:10.832Z,98987.09
2023-01-03T14:12:30.850Z,98988.25
2023-01-03T14:17:33.845Z,98990.47
2023-01-03T14:22:44.127Z,98987.09
2023-01-03T14:27:45.578Z,99000.31
2023-01-03T14:32:46.992Z,99003.56
2023-01-03T14:37:48.381Z,98998.84
2023-01-03T14:42:49.698Z,98999.25
2023-01-03T14:47:55.284Z,98996.75
2023-01-03T14:52:58.038Z,99000.69
2023-01-03T14:58:01.920Z,99003.34
2023-01-03T15:03:03.910Z,99009.34
2023-01-03T15:08:14.650Z,99017.31
2023-01-03T15:13:21.998Z,99017.44
2023-01-03T15:18:24.786Z,99020.91
2023-01-03T15:23:29.109Z,99031.06
2023-01-03T15:28:31.895Z,99041.25
2023-01-03T15:33:33.511Z,99038.59
2023-01-03T15:38:36.989Z,99045.34
2023-01-03T15:43:38.776Z,99031.06
2023-01-03T15:48:42.459Z,99047.03
2023-01-03T15:53:44.956Z,99052.34
2023-01-03T15:58:48.124Z,99054.16
2023-01-03T16:03:50.490Z,99054.00
2023-01-03T16:08:52.794Z,99060.19
2023-01-03T16:13:55.431Z,99066.63
2023-01-03T16:18:57.352Z,99066.72
2023-01-03T16:23:59.007Z,99066.63
2023-01-03T16:29:00.403Z,99065.78
2023-01-03T16:34:03.895Z,99071.22
2023-01-03T16:39:06.444Z,99066.47
2023-01-03T16:44:07.949Z,99066.47
2023-01-03T16:49:10.180Z,99056.06
2023-01-03T16:54:12.725Z,99051.53
2023-01-03T16:59:15.124Z,99068.47
2023-01-03T17:04:16.708Z,99065.97
2023-01-03T17:09:22.289Z,99067.00
2023-01-03T17:14:23.630Z,99060.06
2023-01-03T17:20:02.844Z,99060.94
2023-01-03T17:24:48.229Z,99073.44
2023-01-03T17:29:51.526Z,99078.06
2023-01-03T17:34:52.869Z,99087.06
2023-01-03T17:39:55.933Z,99090.69
2023-01-03T17:45:15.900Z,99086.13
2023-01-03T17:50:17.266Z,99087.44
2023-01-03T17:55:18.669Z,99084.91
2023-01-03T18:00:21.578Z,99088.59
2023-01-03T18:05:27.732Z,99092.31
2023-01-03T18:10:41.819Z,99089.97
2023-01-03T18:15:46.894Z,99087.91
2023-01-03T18:20:48.257Z,99086.25
2023-01-03T18:25:49.625Z,99083.25
2023-01-03T18:30:51.273Z,99083.03
2023-01-03T18:35:53.113Z,99093.06
2023-01-03T18:41:02.204Z,99089.41
2023-01-03T18:46:06.580Z,99089.81
2023-01-03T18:51:12.901Z,99093.09
2023-01-03T18:56:25.185Z,99092.13
2023-01-03T19:01:27.369Z,99108.28
2023-01-03T19:06:33.458Z,99098.66
2023-01-03T19:11:36.474Z,99096.13
2023-01-03T19:16:38.374Z,99085.50
2023-01-03T19:21:40.963Z,99090.22
2023-01-03T19:26:45.279Z,99082.53
2023-01-03T19:31:47.412Z,99086.38
2023-01-03T19:36:49.396Z,99088.44
2023-01-03T19:42:11.442Z,99094.97
2023-01-03T19:47:14.443Z,99081.47
2023-01-03T19:52:16.610Z,99078.53
2023-01-03T19:57:22.926Z,99076.47
2023-01-03T20:02:35.651Z,99076.16
2023-01-03T20:07:37.160Z,99079.63
2023-01-03T20:12:38.586Z,99079.72
2023-01-03T20:17:40.068Z,99079.94
2023-01-03T20:28:04.890Z,99072.50
2023-01-03T20:33:06.225Z,99082.72
2023-01-03T20:38:10.332Z,99072.44
2023-01-03T20:43:13.069Z,99071.66
2023-01-03T20:48:20.826Z,99074.38
2023-01-03T20:53:25.510Z,99067.31
2023-01-03T20:58:27.503Z,99071.13
2023-01-03T21:03:28.890Z,99059.41
2023-01-03T21:08:48.991Z,99050.47
2023-01-03T21:13:50.485Z,99062.44
2023-01-03T21:18:51.798Z,99059.34
2023-01-03T21:23:54.117Z,99060.97
2023-01-03T21:28:55.593Z,99041.03
2023-01-03T21:33:56.898Z,99047.31
2023-01-03T21:38:58.926Z,99047.44
2023-01-03T21:44:03.199Z,99043.41
2023-01-03T21:49:04.535Z,99041.91
2023-01-03T21:54:06.740Z,99038.06
2023-01-03T21:59:08.160Z,99031.16
2023-01-03T22:04:15.460Z,99025.69
2023-01-03T22:09:35.534Z,99035.94
2023-01-03T22:14:36.936Z,99026.06
2023-01-03T22:19:38.335Z,99030.81
2023-01-03T22:24:39.741Z,99030.06
2023-01-03T22:29:41.082Z,99021.22
2023-01-03T22:34:42.437Z,99014.06
2023-01-03T22:39:43.845Z,99013.09
2023-01-03T22:44:45.270Z,99010.38
2023-01-03T22:49:46.632Z,99003.91
2023-01-03T22:54:47.986Z,99013.31
2023-01-03T22:59:49.277Z,99018.53
2023-01-03T23:04:51.613Z,99021.75
2023-01-03T23:09:52.954Z,99009.75
2023-01-03T23:14:54.278Z,98998.69
2023-01-03T23:19:55.612Z,99002.22
2023-01-03T23:24:57.997Z,98989.66
2023-01-03T23:29:59.358Z,98994.72
2023-01-03T23:35:00.700Z,98981.34
2023-01-03T23:40:02.062Z,98985.44
2023-01-03T23:45:03.895Z,98978.06
2023-01-03T23:50:05.418Z,98966.63
2023-01-03T23:55:12.197Z,98965.78
